Time;durP1;ratioP1;P1;durP2;ratioP2;P2;SDS_P1;SDS_P2;PMS_P1;PMS_P2;Temp;Humidity;BMP_temperature;BMP_pressure;BME280_temperature;BME280_humidity;BME280_pressure;Samples;Min_cycle;Max_cycle;Signal;HPM_P1;HPM_P2
2022/10/04 00:01:12;;;;;;;23.77;9.38;;;13.10;99.90;;;;;;5046224;28;20041;-84
2022/10/04 00:03:46;;;;;;;18.23;9.93;;;13.10;99.90;;;;;;5060188;28;20040;-85
2022/10/04 00:06:19;;;;;;;18.13;9.48;;;13.10;99.90;;;;;;5041991;28;20036;-84
2022/10/04 00:08:51;;;;;;;20.23;10.30;;;13.10;99.90;;;;;;5059675;28;20051;-84
2022/10/04 00:11:28;;;;;;;18.15;9.55;;;13.10;99.90;;;;;;5040838;28;20047;-82
2022/10/04 00:13:59;;;;;;;21.30;10.25;;;13.10;99.90;;;;;;5057025;28;20037;-84
2022/10/04 00:16:34;;;;;;;19.05;9.73;;;13.10;99.90;;;;;;5056087;28;20511;-83
2022/10/04 00:19:18;;;;;;;20.33;10.05;;;13.10;99.90;;;;;;5056695;28;20048;-85
2022/10/04 00:22:11;;;;;;;20.02;11.38;;;13.10;99.90;;;;;;5061017;28;20036;-85
2022/10/04 00:24:57;;;;;;;18.73;10.00;;;13.00;99.90;;;;;;5037551;28;20052;-83
2022/10/04 00:27:25;;;;;;;14.25;8.88;;;13.00;99.90;;;;;;5040546;28;20043;-85
2022/10/04 00:30:00;;;;;;;16.20;8.48;;;12.50;99.90;;;;;;5060378;28;20048;-84
2022/10/04 00:32:45;;;;;;;19.55;9.88;;;13.10;99.90;;;;;;5061035;28;20060;-84
2022/10/04 00:35:26;;;;;;;17.13;8.98;;;13.00;99.90;;;;;;5044662;28;20033;-85
2022/10/04 00:38:16;;;;;;;16.88;10.00;;;13.00;99.90;;;;;;5037269;28;20092;-84
2022/10/04 00:41:00;;;;;;;22.88;10.25;;;13.00;99.90;;;;;;5041009;28;20073;-82
2022/10/04 00:43:39;;;;;;;16.35;9.65;;;13.00;99.90;;;;;;5021739;28;20058;-86
2022/10/04 00:46:22;;;;;;;16.80;9.82;;;13.00;99.90;;;;;;5044638;28;20435;-84
2022/10/04 00:49:05;;;;;;;19.23;9.68;;;13.00;99.90;;;;;;5041992;28;20045;-83
2022/10/04 00:51:38;;;;;;;19.50;10.80;;;12.60;99.90;;;;;;5032092;28;20043;-82
2022/10/04 00:54:18;;;;;;;17.33;9.65;;;13.00;99.90;;;;;;5028364;28;20043;-82
2022/10/04 00:56:54;;;;;;;21.15;9.73;;;13.00;99.90;;;;;;5043017;28;20044;-83
2022/10/04 00:59:20;;;;;;;15.93;9.07;;;13.00;99.90;;;;;;5041740;28;20052;-84
2022/10/04 01:01:50;;;;;;;18.77;10.25;;;12.90;99.90;;;;;;5028898;28;20048;-84
2022/10/04 01:04:38;;;;;;;19.23;10.80;;;13.00;99.90;;;;;;5047143;28;20041;-84
2022/10/04 01:07:06;;;;;;;20.58;10.60;;;13.00;99.90;;;;;;5042511;28;20608;-82
2022/10/04 01:09:37;;;;;;;17.48;10.45;;;13.00;99.90;;;;;;5030680;28;20136;-82
2022/10/04 01:12:08;;;;;;;22.40;10.70;;;12.90;99.90;;;;;;5030718;28;20033;-84
2022/10/04 01:14:59;;;;;;;17.58;10.10;;;12.90;99.90;;;;;;5045920;28;20048;-82
2022/10/04 01:17:24;;;;;;;13.32;8.25;;;12.90;99.90;;;;;;5027677;28;20036;-83
2022/10/04 01:19:52;;;;;;;14.40;9.73;;;13.00;99.90;;;;;;5012704;28;20063;-84
2022/10/04 01:22:36;;;;;;;18.83;11.15;;;13.00;99.90;;;;;;5041358;28;20393;-82
2022/10/04 01:25:02;;;;;;;22.52;11.10;;;13.00;99.90;;;;;;5036985;28;20063;-82
2022/10/04 01:27:39;;;;;;;21.33;10.95;;;13.00;99.90;;;;;;5025336;28;20078;-81
2022/10/04 01:30:16;;;;;;;19.73;11.10;;;13.00;99.90;;;;;;5027121;28;20416;-82
2022/10/04 01:32:42;;;;;;;18.60;9.60;;;13.00;99.90;;;;;;5043811;28;20403;-82
2022/10/04 01:35:10;;;;;;;28.85;11.48;;;12.90;99.90;;;;;;5037325;28;20115;-82
2022/10/04 01:37:38;;;;;;;17.63;10.15;;;12.90;99.90;;;;;;5035377;28;20029;-83
2022/10/04 01:40:05;;;;;;;22.90;11.85;;;12.90;99.90;;;;;;5031688;28;20044;-85
2022/10/04 01:42:38;;;;;;;16.23;9.90;;;12.90;99.90;;;;;;5035476;28;20045;-84
2022/10/04 01:45:09;;;;;;;20.08;10.20;;;12.90;99.90;;;;;;5032419;28;20040;-84
2022/10/04 01:47:42;;;;;;;19.38;9.45;;;12.80;99.90;;;;;;5052149;28;20048;-83
2022/10/04 01:50:27;;;;;;;15.95;10.77;;;12.80;99.90;;;;;;5033465;28;20072;-83
2022/10/04 01:53:00;;;;;;;19.08;10.23;;;12.70;99.90;;;;;;5033769;28;20047;-83
2022/10/04 01:55:33;;;;;;;17.00;10.07;;;12.70;99.90;;;;;;5041308;28;20053;-82
2022/10/04 01:58:11;;;;;;;19.38;10.85;;;12.60;99.90;;;;;;5038058;28;20041;-82
2022/10/04 02:00:45;;;;;;;20.92;10.35;;;12.70;99.90;;;;;;5027057;28;20052;-83
2022/10/04 02:03:19;;;;;;;21.50;11.25;;;12.60;99.90;;;;;;5047749;28;20489;-83
2022/10/04 02:05:51;;;;;;;18.58;9.30;;;12.60;99.90;;;;;;5031082;28;20036;-85
2022/10/04 02:08:24;;;;;;;17.20;9.90;;;12.50;99.90;;;;;;5026450;28;20033;-84
2022/10/04 02:10:52;;;;;;;17.92;11.05;;;12.60;99.90;;;;;;5027548;28;20028;-83
2022/10/04 02:13:19;;;;;;;20.27;9.98;;;12.50;99.90;;;;;;5024673;28;20033;-83
2022/10/04 02:15:46;;;;;;;20.10;11.15;;;13.00;99.90;;;;;;5011559;28;20638;-83
2022/10/04 02:18:19;;;;;;;18.90;10.82;;;12.40;99.90;;;;;;5025750;28;20420;-84
2022/10/04 02:20:47;;;;;;;19.05;11.82;;;12.40;99.90;;;;;;5023083;28;20106;-84
2022/10/04 02:23:17;;;;;;;17.05;11.07;;;12.40;99.90;;;;;;5005934;28;20025;-82
2022/10/04 02:25:43;;;;;;;22.20;11.32;;;12.30;99.90;;;;;;5042766;28;20514;-82
2022/10/04 02:28:11;;;;;;;16.45;10.25;;;12.30;99.90;;;;;;5021456;28;20123;-81
2022/10/04 02:33:46;;;;;;;19.83;10.73;;;12.30;99.90;;;;;;5049576;28;20505;-80
2022/10/04 02:36:13;;;;;;;17.17;10.75;;;12.20;99.90;;;;;;5044252;28;20064;-81
2022/10/04 02:38:52;;;;;;;20.83;11.68;;;12.20;99.90;;;;;;5049011;28;20497;-81
2022/10/04 02:41:36;;;;;;;23.35;12.32;;;12.20;99.90;;;;;;5023996;28;20137;-82
2022/10/04 02:44:20;;;;;;;17.65;11.35;;;12.10;99.90;;;;;;5032012;28;20059;-84
2022/10/04 02:46:58;;;;;;;;;;;12.10;99.90;;;;;;5027158;28;20091;-80
2022/10/04 02:49:30;;;;;;;21.67;11.73;;;12.00;99.90;;;;;;5058040;28;19924;-83
2022/10/04 02:52:09;;;;;;;23.15;12.18;;;12.00;99.90;;;;;;5050571;28;20041;-81
2022/10/04 02:55:01;;;;;;;16.38;10.30;;;12.00;99.90;;;;;;5033395;28;20681;-82
2022/10/04 02:57:29;;;;;;;21.98;11.88;;;11.90;99.90;;;;;;5061875;28;20120;-84
2022/10/04 03:00:14;;;;;;;18.33;11.63;;;11.90;99.90;;;;;;5029962;28;20091;-84
2022/10/04 03:02:40;;;;;;;19.85;12.00;;;11.90;99.90;;;;;;5040398;28;20037;-83
2022/10/04 03:05:13;;;;;;;26.08;12.48;;;11.80;99.90;;;;;;5019383;28;20036;-84
2022/10/04 03:07:39;;;;;;;26.30;11.88;;;11.80;99.90;;;;;;5032792;28;20080;-81
2022/10/04 03:10:11;;;;;;;21.65;12.38;;;11.80;99.90;;;;;;4995350;28;20100;-84
2022/10/04 03:12:39;;;;;;;20.20;12.90;;;11.80;99.90;;;;;;5022628;28;20044;-84
2022/10/04 03:15:09;;;;;;;19.08;10.82;;;11.70;99.90;;;;;;5024938;28;20055;-83
2022/10/04 03:17:35;;;;;;;25.40;12.45;;;11.70;99.90;;;;;;5040574;28;20040;-82
2022/10/04 03:20:04;;;;;;;20.30;12.65;;;11.70;99.90;;;;;;5007964;28;20032;-82
2022/10/04 03:22:29;;;;;;;21.45;13.02;;;11.60;99.90;;;;;;5050286;28;20040;-81
2022/10/04 03:24:57;;;;;;;20.70;10.65;;;11.60;99.90;;;;;;5039895;28;20417;-84
2022/10/04 03:27:27;;;;;;;22.42;12.27;;;11.60;99.90;;;;;;5043195;28;20056;-83
2022/10/04 03:29:55;;;;;;;24.40;12.93;;;11.60;99.90;;;;;;5042162;28;20062;-84
2022/10/04 03:32:21;;;;;;;21.20;11.82;;;11.60;99.90;;;;;;5024729;28;20274;-83
2022/10/04 03:34:59;;;;;;;23.15;12.77;;;11.50;99.90;;;;;;5026358;28;20060;-84
2022/10/04 03:37:26;;;;;;;17.65;10.30;;;11.70;99.90;;;;;;5023910;28;20393;-81
2022/10/04 03:39:54;;;;;;;25.15;12.60;;;11.50;99.90;;;;;;5024952;28;20032;-84
2022/10/04 03:42:21;;;;;;;23.48;14.20;;;11.50;99.90;;;;;;5039128;28;20114;-82
2022/10/04 03:44:51;;;;;;;22.13;12.77;;;11.50;99.90;;;;;;5045063;28;20443;-80
2022/10/04 03:47:35;;;;;;;16.15;11.68;;;11.50;99.90;;;;;;5025023;28;20536;-84
2022/10/04 03:50:11;;;;;;;;;;;11.50;99.90;;;;;;5027810;28;20130;-82
2022/10/04 03:52:41;;;;;;;21.55;11.77;;;11.40;99.90;;;;;;5023510;28;19951;-83
2022/10/04 03:55:09;;;;;;;21.70;12.30;;;11.40;99.90;;;;;;5036559;28;20507;-84
2022/10/04 03:57:36;;;;;;;24.45;12.15;;;11.40;99.90;;;;;;5029691;28;20068;-84
2022/10/04 04:00:05;;;;;;;22.58;11.60;;;11.40;99.90;;;;;;5028919;28;20486;-83
2022/10/04 04:02:54;;;;;;;22.33;11.25;;;11.40;99.90;;;;;;5030925;28;20513;-83
2022/10/04 04:05:32;;;;;;;19.88;11.05;;;11.40;99.90;;;;;;5023527;28;20064;-83
2022/10/04 04:08:06;;;;;;;22.33;14.02;;;11.40;99.90;;;;;;5040998;28;21675;-84
2022/10/04 04:10:38;;;;;;;23.80;12.00;;;11.40;99.90;;;;;;5021816;28;20036;-81
2022/10/04 04:13:25;;;;;;;18.83;11.48;;;11.80;99.90;;;;;;5039924;28;20135;-84
2022/10/04 04:15:54;;;;;;;22.60;12.13;;;11.40;99.90;;;;;;5018488;28;20040;-82
2022/10/04 04:18:26;;;;;;;24.52;13.05;;;11.30;99.90;;;;;;5018100;28;20040;-80
2022/10/04 04:20:57;;;;;;;22.35;11.38;;;11.40;99.90;;;;;;5039026;28;20068;-83
2022/10/04 04:23:39;;;;;;;23.02;12.75;;;11.40;99.90;;;;;;5039402;28;20124;-84
2022/10/04 04:26:33;;;;;;;24.45;12.93;;;11.30;99.90;;;;;;5028621;28;20470;-83
2022/10/04 04:29:17;;;;;;;22.88;11.65;;;11.40;99.90;;;;;;5021708;28;20144;-84
2022/10/04 04:31:53;;;;;;;19.60;12.50;;;11.30;99.90;;;;;;5026452;28;20063;-82
2022/10/04 04:34:28;;;;;;;21.90;13.15;;;11.30;99.90;;;;;;5038571;28;20036;-82
2022/10/04 04:37:03;;;;;;;30.50;14.45;;;11.30;99.90;;;;;;5038629;28;20110;-80
2022/10/04 04:39:33;;;;;;;25.73;13.23;;;11.30;99.90;;;;;;5025503;28;20047;-84
2022/10/04 04:42:16;;;;;;;23.38;14.30;;;11.20;99.90;;;;;;5012682;28;20040;-81
2022/10/04 04:44:54;;;;;;;25.73;14.27;;;11.30;99.90;;;;;;5017455;28;20067;-83
2022/10/04 04:47:41;;;;;;;26.52;14.75;;;11.30;99.90;;;;;;5024851;28;20048;-82
2022/10/04 04:50:12;;;;;;;25.88;14.07;;;11.30;99.90;;;;;;5040215;28;20406;-83
2022/10/04 04:52:38;;;;;;;23.65;15.20;;;11.30;99.90;;;;;;5026394;28;20036;-83
2022/10/04 04:55:06;;;;;;;22.00;13.43;;;11.30;99.90;;;;;;5002063;23;20041;-60
2022/10/04 04:57:32;;;;;;;23.23;13.27;;;11.30;99.90;;;;;;4990450;28;20040;-61
2022/10/04 05:00:00;;;;;;;24.90;14.43;;;11.20;99.90;;;;;;5000140;28;20653;-62
2022/10/04 05:02:36;;;;;;;20.08;12.38;;;11.10;99.90;;;;;;4988011;28;20172;-62
2022/10/04 05:05:25;;;;;;;23.48;13.35;;;11.20;99.90;;;;;;4990707;28;20127;-69
2022/10/04 05:08:19;;;;;;;22.52;13.20;;;11.20;99.90;;;;;;5009118;28;20652;-60
2022/10/04 05:10:56;;;;;;;19.70;12.77;;;11.20;99.90;;;;;;4984080;28;20038;-61
2022/10/04 05:13:38;;;;;;;21.75;13.30;;;11.20;99.90;;;;;;5026066;28;20441;-61
2022/10/04 05:16:12;;;;;;;24.95;13.88;;;11.10;99.90;;;;;;4986582;28;20033;-61
2022/10/04 05:18:38;;;;;;;24.58;14.13;;;11.10;99.90;;;;;;4989778;28;20396;-61
2022/10/04 05:21:14;;;;;;;23.33;14.05;;;11.20;99.90;;;;;;5001305;28;20038;-62
2022/10/04 05:23:40;;;;;;;19.33;13.68;;;11.10;99.90;;;;;;5003192;28;20041;-61
2022/10/04 05:26:11;;;;;;;25.98;15.05;;;11.10;99.90;;;;;;5014570;28;20041;-60
2022/10/04 05:28:37;;;;;;;23.95;14.35;;;11.10;99.90;;;;;;5000088;28;20124;-63
2022/10/04 05:31:15;;;;;;;23.08;14.27;;;11.10;99.90;;;;;;5021021;28;20048;-63
2022/10/04 05:33:48;;;;;;;23.80;15.52;;;11.10;99.90;;;;;;5013407;28;20034;-60
2022/10/04 05:36:34;;;;;;;27.02;15.52;;;11.10;99.90;;;;;;5017868;28;20117;-63
2022/10/04 05:39:35;;;;;;;25.65;14.90;;;11.10;99.90;;;;;;5009787;28;20043;-60
2022/10/04 05:42:21;;;;;;;20.00;13.40;;;11.10;99.90;;;;;;4997751;28;20111;-62
2022/10/04 05:44:55;;;;;;;19.02;13.77;;;11.10;99.90;;;;;;5016600;28;20101;-68
2022/10/04 05:47:26;;;;;;;21.70;14.50;;;11.00;99.90;;;;;;4994413;28;20103;-64
2022/10/04 05:49:56;;;;;;;25.85;14.50;;;11.10;99.90;;;;;;5022005;28;20161;-60
2022/10/04 05:52:33;;;;;;;25.50;14.23;;;11.00;99.90;;;;;;5015446;28;20054;-63
2022/10/04 05:55:11;;;;;;;22.63;14.88;;;11.70;99.90;;;;;;5018598;28;20079;-64
2022/10/04 05:57:58;;;;;;;21.30;13.85;;;11.10;99.90;;;;;;5003089;28;20042;-66
2022/10/04 06:00:43;;;;;;;30.20;16.45;;;11.00;99.90;;;;;;4998317;28;20042;-63
2022/10/04 06:03:12;;;;;;;19.33;13.48;;;11.00;99.90;;;;;;5027268;28;20030;-64
2022/10/04 06:05:52;;;;;;;25.10;15.13;;;11.00;99.90;;;;;;5000389;28;20068;-65
2022/10/04 06:08:42;;;;;;;22.80;15.80;;;11.00;99.90;;;;;;4999400;28;20041;-64
2022/10/04 06:11:11;;;;;;;25.63;14.25;;;11.00;99.90;;;;;;5002003;28;20077;-66
2022/10/04 06:13:50;;;;;;;21.15;14.82;;;11.00;99.90;;;;;;5018969;28;20044;-65
2022/10/04 06:16:43;;;;;;;26.10;16.33;;;11.00;99.90;;;;;;5025775;28;20409;-65
2022/10/04 06:19:59;;;;;;;21.47;15.93;;;11.00;99.90;;;;;;5020886;28;20354;-68
2022/10/04 06:22:45;;;;;;;30.33;16.85;;;11.00;99.90;;;;;;4992566;28;20069;-67
2022/10/04 06:25:19;;;;;;;21.08;14.77;;;11.00;99.90;;;;;;4979722;28;20080;-61
2022/10/04 06:27:56;;;;;;;25.67;16.00;;;11.00;99.90;;;;;;5008850;28;20069;-61
2022/10/04 06:30:23;;;;;;;22.85;15.15;;;11.00;99.90;;;;;;5009639;28;20080;-62
2022/10/04 06:32:55;;;;;;;25.95;15.65;;;11.00;99.90;;;;;;5008330;28;20134;-63
2022/10/04 06:35:37;;;;;;;23.70;16.85;;;11.20;99.90;;;;;;5007963;28;20118;-67
2022/10/04 06:38:23;;;;;;;23.42;15.77;;;11.50;99.90;;;;;;4989212;28;20500;-64
2022/10/04 06:40:53;;;;;;;27.65;17.95;;;11.70;99.90;;;;;;5002173;28;20131;-62
2022/10/04 06:43:42;;;;;;;24.80;14.95;;;12.00;99.90;;;;;;4989727;28;20044;-61
2022/10/04 06:46:16;;;;;;;25.77;15.68;;;11.90;99.90;;;;;;5014899;28;20049;-62
2022/10/04 06:48:41;;;;;;;28.77;14.75;;;11.80;99.90;;;;;;4991591;28;20110;-62
2022/10/04 06:51:22;;;;;;;22.85;15.45;;;11.80;99.90;;;;;;5010816;28;20050;-65
2022/10/04 06:54:14;;;;;;;21.67;15.60;;;11.90;99.90;;;;;;5007699;28;20510;-65
2022/10/04 06:56:40;;;;;;;25.83;15.65;;;12.00;99.90;;;;;;5008876;28;20037;-65
2022/10/04 06:59:23;;;;;;;26.75;16.20;;;12.00;99.90;;;;;;5009851;28;22212;-62
2022/10/04 07:01:55;;;;;;;28.15;17.27;;;11.90;99.90;;;;;;5013724;28;20041;-61
2022/10/04 07:04:36;;;;;;;23.80;15.18;;;12.00;99.90;;;;;;5010669;28;20037;-62
2022/10/04 07:07:23;;;;;;;23.90;15.63;;;12.00;99.90;;;;;;5004776;28;20064;-63
2022/10/04 07:10:17;;;;;;;23.98;15.48;;;12.20;99.90;;;;;;5015442;28;20060;-65
2022/10/04 07:12:51;;;;;;;22.38;14.85;;;12.30;99.90;;;;;;4994568;28;20377;-62
2022/10/04 07:15:27;;;;;;;24.42;15.10;;;12.30;99.90;;;;;;5001468;28;20099;-62
2022/10/04 07:17:57;;;;;;;23.10;15.20;;;12.40;99.90;;;;;;5010487;28;20067;-62
2022/10/04 07:20:33;;;;;;;21.33;15.52;;;12.50;99.90;;;;;;5015064;28;20120;-62
2022/10/04 07:23:05;;;;;;;27.23;15.65;;;12.50;99.90;;;;;;5017182;28;20084;-62
2022/10/04 07:25:47;;;;;;;24.98;15.55;;;12.50;99.90;;;;;;4983330;28;20053;-64
2022/10/04 07:31:12;;;;;;;20.90;14.60;;;12.50;99.90;;;;;;4999431;28;20048;-62
2022/10/04 07:33:49;;;;;;;27.52;14.88;;;12.50;99.90;;;;;;4984500;28;20116;-62
2022/10/04 07:36:28;;;;;;;19.45;14.02;;;12.50;99.90;;;;;;4983245;28;20456;-61
2022/10/04 07:39:00;;;;;;;22.10;14.82;;;12.50;99.90;;;;;;5016875;28;20052;-62
2022/10/04 07:41:35;;;;;;;18.02;14.00;;;12.50;99.90;;;;;;5013874;28;20443;-62
2022/10/04 07:44:30;;;;;;;21.67;14.50;;;12.40;99.90;;;;;;5010054;28;20440;-62
2022/10/04 07:47:16;;;;;;;19.73;13.82;;;12.40;99.90;;;;;;5006458;28;20118;-62
2022/10/04 07:49:42;;;;;;;23.73;14.52;;;12.40;99.90;;;;;;5001848;28;20180;-64
2022/10/04 07:52:49;;;;;;;20.67;14.52;;;12.40;99.90;;;;;;4998250;28;20132;-62
2022/10/04 07:55:48;;;;;;;22.85;13.98;;;12.40;99.90;;;;;;5025017;28;20553;-65
2022/10/04 07:58:35;;;;;;;18.95;14.05;;;12.40;99.90;;;;;;5022740;28;20033;-64
2022/10/04 08:01:29;;;;;;;24.52;14.85;;;12.50;99.90;;;;;;5000082;28;20038;-64
2022/10/04 08:04:05;;;;;;;22.00;14.07;;;12.70;99.90;;;;;;4971403;28;20054;-65
2022/10/04 08:06:42;;;;;;;23.98;13.98;;;12.80;99.90;;;;;;5016875;28;20337;-65
2022/10/04 08:09:22;;;;;;;17.95;14.43;;;13.00;99.90;;;;;;5002705;28;20044;-65
2022/10/04 08:12:01;;;;;;;25.10;15.02;;;13.20;99.90;;;;;;4978467;28;20142;-65
2022/10/04 08:14:55;;;;;;;21.83;14.13;;;13.40;99.90;;;;;;5016300;28;20518;-64
2022/10/04 08:17:35;;;;;;;20.77;12.95;;;13.50;99.90;;;;;;5016056;28;20037;-63
2022/10/04 08:20:27;;;;;;;20.98;13.52;;;13.70;99.90;;;;;;5000949;28;20043;-64
2022/10/04 08:23:07;;;;;;;21.40;13.63;;;13.80;99.90;;;;;;4979639;28;20053;-64
2022/10/04 08:26:01;;;;;;;22.52;13.50;;;13.90;99.90;;;;;;4981786;28;20033;-64
2022/10/04 08:31:50;;;;;;;18.38;13.52;;;14.20;99.90;;;;;;5000740;28;20053;-63
2022/10/04 08:34:43;;;;;;;22.50;13.73;;;14.30;99.90;;;;;;4998593;28;20045;-66
2022/10/04 08:37:47;;;;;;;20.83;14.07;;;14.40;99.90;;;;;;5000224;28;20160;-61
2022/10/04 08:40:15;;;;;;;21.20;12.85;;;14.50;99.90;;;;;;5010102;28;20124;-60
2022/10/04 08:42:55;;;;;;;18.48;11.75;;;14.50;99.90;;;;;;5020907;28;20429;-60
2022/10/04 08:45:42;;;;;;;25.27;13.52;;;14.60;99.90;;;;;;5029062;28;20071;-60
2022/10/04 08:48:45;;;;;;;17.38;12.68;;;14.60;99.90;;;;;;5023319;28;20049;-60
2022/10/04 08:51:23;;;;;;;17.92;13.07;;;14.70;99.90;;;;;;5033660;28;20112;-61
2022/10/04 08:54:17;;;;;;;20.55;13.32;;;14.80;99.90;;;;;;4994341;28;20061;-66
2022/10/04 08:56:46;;;;;;;16.13;12.20;;;14.90;99.90;;;;;;5025962;28;20033;-63
2022/10/04 08:59:17;;;;;;;20.95;12.05;;;15.00;99.90;;;;;;5009875;28;20377;-61
2022/10/04 09:02:05;;;;;;;25.17;12.52;;;15.10;99.90;;;;;;5032796;28;20041;-61
2022/10/04 09:05:09;;;;;;;15.07;10.95;;;15.20;99.90;;;;;;5008668;28;20045;-61
2022/10/04 09:07:58;;;;;;;19.55;12.52;;;15.20;99.90;;;;;;5032593;28;20037;-61
2022/10/04 09:10:43;;;;;;;16.65;12.00;;;15.30;99.90;;;;;;4990409;28;20042;-63
2022/10/04 09:13:30;;;;;;;17.75;11.40;;;15.40;99.90;;;;;;5006805;28;20423;-64
2022/10/04 09:16:02;;;;;;;16.27;11.18;;;15.50;99.90;;;;;;5014536;28;20033;-60
2022/10/04 09:18:36;;;;;;;20.13;12.90;;;15.50;99.90;;;;;;5007415;28;20038;-60
2022/10/04 09:21:09;;;;;;;19.92;12.98;;;15.60;99.90;;;;;;5027240;28;20812;-64
2022/10/04 09:23:36;;;;;;;21.85;13.80;;;15.70;99.90;;;;;;5027288;28;20029;-62
2022/10/04 09:26:48;;;;;;;19.83;13.82;;;15.80;99.90;;;;;;5007033;28;20045;-64
2022/10/04 09:29:29;;;;;;;18.92;13.10;;;15.80;99.90;;;;;;5023798;28;20064;-59
2022/10/04 09:32:58;;;;;;;21.05;15.57;;;16.00;99.90;;;;;;5010302;28;20042;-60
2022/10/04 09:35:39;;;;;;;19.38;14.43;;;16.00;99.90;;;;;;4931488;29;20095;-60
2022/10/04 09:38:04;;;;;;;20.48;14.75;;;16.10;99.90;;;;;;5034598;28;20387;-66
2022/10/04 09:40:51;;;;;;;25.58;15.57;;;16.10;99.90;;;;;;5023028;28;20040;-68
2022/10/04 09:43:48;;;;;;;22.13;15.80;;;16.10;99.90;;;;;;5022224;28;20072;-61
2022/10/04 09:46:28;;;;;;;20.88;15.23;;;16.20;99.90;;;;;;4944624;28;20048;-73
2022/10/04 09:49:35;;;;;;;22.20;16.15;;;16.20;99.90;;;;;;5001418;28;20037;-61
2022/10/04 09:52:35;;;;;;;22.60;15.90;;;16.10;99.90;;;;;;5005391;28;20060;-62
2022/10/04 09:55:03;;;;;;;21.08;15.95;;;16.10;99.90;;;;;;5018171;28;20180;-66
2022/10/04 09:58:11;;;;;;;21.33;16.38;;;16.10;99.90;;;;;;4999374;28;20053;-64
2022/10/04 10:00:46;;;;;;;22.65;16.13;;;16.10;99.90;;;;;;5015468;28;20451;-68
2022/10/04 10:03:30;;;;;;;22.33;15.85;;;16.10;99.90;;;;;;5017317;28;20280;-68
2022/10/04 10:06:11;;;;;;;21.52;16.30;;;16.10;99.90;;;;;;5016922;28;20041;-60
2022/10/04 10:09:06;;;;;;;18.42;16.08;;;16.20;99.90;;;;;;5019667;28;20176;-61
2022/10/04 10:14:34;;;;;;;20.00;15.43;;;16.50;99.90;;;;;;5007030;28;20053;-66
2022/10/04 10:17:03;;;;;;;24.77;16.02;;;16.60;99.90;;;;;;4987446;28;20538;-65
2022/10/04 10:19:57;;;;;;;23.08;16.40;;;16.60;99.90;;;;;;4969167;28;20041;-61
2022/10/04 10:22:31;;;;;;;20.70;16.53;;;16.60;99.90;;;;;;5016717;28;20045;-61
2022/10/04 10:25:25;;;;;;;24.45;16.90;;;16.50;99.90;;;;;;4993589;28;20052;-63
2022/10/04 10:27:54;;;;;;;19.45;15.18;;;16.60;99.90;;;;;;5012065;28;20037;-62
2022/10/04 10:30:47;;;;;;;21.10;15.07;;;16.60;99.90;;;;;;4986540;28;20617;-62
2022/10/04 10:33:37;;;;;;;20.33;15.07;;;16.50;99.90;;;;;;5010239;28;20201;-63
2022/10/04 10:36:38;;;;;;;22.05;14.30;;;16.50;99.90;;;;;;4994489;28;20041;-68
2022/10/04 10:39:26;;;;;;;21.45;14.20;;;16.40;99.90;;;;;;4987398;28;20049;-67
2022/10/04 10:42:10;;;;;;;20.75;14.02;;;16.40;99.90;;;;;;5017896;28;20089;-62
2022/10/04 10:45:00;;;;;;;21.23;14.50;;;16.40;99.90;;;;;;5015991;28;20046;-68
2022/10/04 10:47:58;;;;;;;20.42;14.35;;;16.30;99.90;;;;;;4994220;28;20092;-68
2022/10/04 10:50:59;;;;;;;19.25;14.60;;;16.30;99.90;;;;;;4999421;28;20041;-66
2022/10/04 10:53:59;;;;;;;18.83;14.55;;;16.20;99.90;;;;;;5016126;28;20129;-67
2022/10/04 10:56:44;;;;;;;15.52;10.98;;;16.20;99.90;;;;;;5025223;23;20096;-59
2022/10/04 10:59:35;;;;;;;16.65;11.80;;;16.20;99.90;;;;;;5021928;28;20049;-61
2022/10/04 11:02:48;;;;;;;15.88;10.63;;;16.10;99.90;;;;;;4999054;28;20080;-61
2022/10/04 11:05:28;;;;;;;14.65;10.15;;;16.10;99.90;;;;;;5018292;28;20123;-62
2022/10/04 11:08:19;;;;;;;11.50;8.32;;;16.20;99.90;;;;;;5012798;28;20056;-61
2022/10/04 11:11:06;;;;;;;13.95;8.63;;;16.50;99.90;;;;;;5021809;28;20060;-62
2022/10/04 11:13:53;;;;;;;12.85;8.27;;;16.70;99.90;;;;;;5027422;28;20049;-62
2022/10/04 11:16:20;;;;;;;13.95;8.55;;;17.10;99.90;;;;;;5007270;28;20046;-60
2022/10/04 11:19:05;;;;;;;11.05;7.88;;;17.30;99.90;;;;;;5012997;28;20042;-62
2022/10/04 11:21:42;;;;;;;12.75;8.80;;;17.50;99.90;;;;;;5022055;28;20442;-61
2022/10/04 11:24:42;;;;;;;12.50;8.40;;;17.60;99.90;;;;;;5016264;28;20049;-61
2022/10/04 11:27:32;;;;;;;12.45;7.95;;;17.50;99.90;;;;;;5009485;28;20037;-61
2022/10/04 11:30:08;;;;;;;13.52;7.78;;;17.40;99.90;;;;;;5020396;28;21655;-61
2022/10/04 11:32:48;;;;;;;11.07;7.53;;;17.40;99.90;;;;;;5027038;28;20119;-61
2022/10/04 11:35:35;;;;;;;13.85;7.80;;;17.70;99.90;;;;;;5023238;28;20042;-61
2022/10/04 11:38:04;;;;;;;8.95;7.25;;;17.80;99.90;;;;;;5022245;28;20463;-61
2022/10/04 11:40:44;;;;;;;9.60;7.07;;;17.80;99.90;;;;;;5028870;28;20458;-62
2022/10/04 11:43:30;;;;;;;8.38;6.63;;;17.70;99.90;;;;;;5025970;28;20060;-61
2022/10/04 11:46:17;;;;;;;11.63;7.00;;;17.50;99.90;;;;;;5007293;28;20085;-62
2022/10/04 11:49:20;;;;;;;12.02;7.65;;;17.30;99.90;;;;;;5025500;28;20500;-62
2022/10/04 11:52:07;;;;;;;10.88;6.82;;;17.30;99.90;;;;;;5009203;28;20052;-62
2022/10/04 11:54:51;;;;;;;9.98;6.80;;;17.40;99.90;;;;;;5025571;28;20053;-63
2022/10/04 11:57:30;;;;;;;8.77;7.00;;;17.50;99.90;;;;;;5026266;28;20619;-63
2022/10/04 12:00:01;;;;;;;12.85;7.40;;;17.70;99.90;;;;;;5024857;28;20041;-62
2022/10/04 12:02:35;;;;;;;8.38;6.88;;;17.80;99.90;;;;;;4988582;28;20084;-63
2022/10/04 12:05:22;;;;;;;12.32;7.30;;;17.90;99.90;;;;;;5025129;28;20041;-63
2022/10/04 12:08:16;;;;;;;10.93;7.43;;;17.90;99.90;;;;;;4988910;28;20041;-62
2022/10/04 12:10:45;;;;;;;15.50;7.45;;;18.00;99.90;;;;;;5021601;28;20438;-63
2022/10/04 12:13:14;;;;;;;15.02;7.68;;;18.20;99.90;;;;;;5023925;28;20301;-62
2022/10/04 12:15:57;;;;;;;11.88;6.95;;;18.40;99.90;;;;;;5008430;28;20396;-63
2022/10/04 12:18:51;;;;;;;10.87;6.83;;;18.60;99.90;;;;;;5015320;28;20381;-61
2022/10/04 12:21:58;;;;;;;13.88;6.70;;;18.80;99.90;;;;;;5033323;22;20065;-86
2022/10/04 12:24:48;;;;;;;10.40;6.43;;;18.80;99.90;;;;;;4973779;28;20061;-86
2022/10/04 12:27:38;;;;;;;10.13;7.43;;;18.90;99.90;;;;;;4983827;28;20037;-86
2022/10/04 12:30:21;;;;;;;11.20;7.25;;;18.70;99.90;;;;;;4994491;28;20092;-87
2022/10/04 12:33:02;;;;;;;10.88;7.72;;;18.70;99.90;;;;;;5004220;28;20462;-86
2022/10/04 12:35:36;;;;;;;9.75;7.25;;;18.80;99.90;;;;;;5019733;28;20044;-87
2022/10/04 12:38:36;;;;;;;12.60;7.05;;;18.70;99.90;;;;;;4992586;28;20038;-86
2022/10/04 12:41:04;;;;;;;11.35;6.25;;;18.70;99.90;;;;;;5002784;28;20048;-86
2022/10/04 12:44:02;;;;;;;9.52;5.55;;;18.70;99.90;;;;;;5018800;28;20469;-86
2022/10/04 12:46:39;;;;;;;9.82;6.18;;;18.70;99.90;;;;;;5007950;28;20038;-86
2022/10/04 12:49:35;;;;;;;8.05;5.70;;;18.80;99.90;;;;;;5004258;28;20034;-84
2022/10/04 12:52:16;;;;;;;10.45;4.78;;;18.90;99.90;;;;;;4987145;28;20037;-85
2022/10/04 12:54:47;;;;;;;7.78;4.75;;;19.10;99.90;;;;;;5008318;28;20780;-86
2022/10/04 12:57:34;;;;;;;8.00;4.32;;;19.20;99.90;;;;;;5008399;28;20044;-84
2022/10/04 13:00:17;;;;;;;9.32;4.05;;;19.40;99.90;;;;;;4986900;28;20461;-82
2022/10/04 13:03:01;;;;;;;8.57;5.40;;;19.60;99.90;;;;;;5002911;28;20041;-84
2022/10/04 13:05:45;;;;;;;6.90;5.35;;;19.60;99.90;;;;;;5021202;28;20144;-85
2022/10/04 13:08:31;;;;;;;;;;;19.60;99.90;;;;;;5020703;28;20132;-84
2022/10/04 13:11:19;;;;;;;9.77;5.10;;;19.60;99.90;;;;;;5009592;28;20375;-83
2022/10/04 13:14:00;;;;;;;8.35;4.93;;;19.60;99.90;;;;;;4986381;28;20417;-87
2022/10/04 13:16:37;;;;;;;7.43;4.82;;;19.60;99.90;;;;;;5006957;28;20041;-85
2022/10/04 13:19:05;;;;;;;8.43;5.20;;;19.60;99.90;;;;;;5010357;28;20571;-86
2022/10/04 13:21:40;;;;;;;10.40;6.25;;;19.50;99.90;;;;;;4996875;28;20053;-83
2022/10/04 13:24:20;;;;;;;7.68;5.82;;;19.00;99.90;;;;;;5012332;28;20052;-84
2022/10/04 13:27:01;;;;;;;9.38;6.38;;;19.50;99.90;;;;;;5027330;28;20033;-86
2022/10/04 13:29:32;;;;;;;9.65;5.70;;;19.40;99.90;;;;;;5017935;28;20052;-83
2022/10/04 13:32:19;;;;;;;8.75;5.50;;;19.40;99.90;;;;;;5022366;28;20088;-84
2022/10/04 13:34:56;;;;;;;8.18;5.47;;;19.30;99.50;;;;;;5021098;28;20494;-84
2022/10/04 13:37:43;;;;;;;7.65;4.15;;;19.20;99.80;;;;;;5024908;28;20041;-85
2022/10/04 13:40:31;;;;;;;9.05;5.13;;;19.20;99.70;;;;;;5016682;28;20040;-85
2022/10/04 13:43:04;;;;;;;8.27;5.68;;;19.00;99.70;;;;;;5007034;28;20041;-81
2022/10/04 13:45:52;;;;;;;8.15;5.63;;;19.00;99.90;;;;;;5021521;28;20586;-84